createdAt,value
2019-04-06T00:02:02.417Z,36.87
2019-04-06T00:04:31.855Z,37.63
2019-04-06T00:07:01.307Z,37.20
2019-04-06T00:09:30.739Z,37.33
2019-04-06T00:12:00.211Z,38.07
2019-04-06T00:14:29.659Z,36.53
2019-04-06T00:16:59.156Z,35.83
2019-04-06T00:19:28.573Z,33.70
2019-04-06T00:21:58.063Z,36.20
2019-04-06T00:24:27.557Z,34.93
2019-04-06T00:26:57.012Z,36.30
2019-04-06T00:29:26.464Z,37.47
2019-04-06T00:32:06.443Z,36.07
2019-04-06T00:34:35.943Z,35.87
2019-04-06T00:37:05.327Z,37.23
2019-04-06T00:39:34.789Z,38.80
2019-04-06T00:42:04.296Z,37.90
2019-04-06T00:44:33.789Z,36.43
2019-04-06T00:47:03.563Z,36.90
2019-04-06T00:49:32.997Z,36.00
2019-04-06T00:52:02.485Z,35.23
2019-04-06T00:54:32.027Z,34.87
2019-04-06T00:57:02.291Z,35.13
2019-04-06T00:59:31.812Z,34.83
2019-04-06T01:02:01.269Z,34.17
2019-04-06T01:04:30.705Z,36.07
2019-04-06T01:07:00.175Z,34.63
2019-04-06T01:09:29.684Z,35.33
2019-04-06T01:11:59.179Z,35.17
2019-04-06T01:14:28.821Z,37.07
2019-04-06T01:16:58.673Z,36.47
2019-04-06T01:19:28.214Z,34.30
2019-04-06T01:21:57.813Z,36.53
2019-04-06T01:24:27.257Z,36.10
2019-04-06T01:26:57.201Z,36.80
2019-04-06T01:29:26.631Z,34.07
2019-04-06T01:31:56.121Z,34.40
2019-04-06T01:34:25.573Z,36.20
2019-04-06T01:36:55.114Z,35.83
2019-04-06T01:39:24.887Z,36.10
2019-04-06T01:41:54.796Z,35.67
2019-04-06T01:44:24.321Z,36.83
2019-04-06T01:46:53.813Z,35.80
2019-04-06T01:49:23.353Z,36.20
2019-04-06T01:51:52.795Z,36.43
2019-04-06T01:54:22.254Z,34.20
2019-04-06T01:56:51.741Z,34.47
2019-04-06T01:59:21.192Z,37.40
2019-04-06T02:02:08.639Z,43.53
2019-04-06T02:04:38.059Z,38.87
2019-04-06T02:07:07.610Z,36.73
2019-04-06T02:09:37.183Z,37.40
2019-04-06T02:12:06.635Z,37.43
2019-04-06T02:14:36.203Z,36.77
2019-04-06T02:17:05.648Z,38.73
2019-04-06T02:19:35.121Z,36.17
2019-04-06T02:22:04.523Z,36.47
2019-04-06T02:24:34.018Z,39.33
2019-04-06T02:27:03.438Z,38.00
2019-04-06T02:29:32.880Z,37.00
2019-04-06T02:32:19.899Z,38.13
2019-04-06T02:35:14.097Z,39.23
2019-04-06T02:38:08.839Z,39.40
2019-04-06T02:40:57.693Z,39.73
2019-04-06T02:43:29.955Z,39.47
2019-04-06T02:45:59.305Z,40.57
2019-04-06T02:48:28.888Z,41.20
2019-04-06T02:50:58.419Z,42.67
2019-04-06T02:53:28.370Z,44.33
2019-04-06T02:55:57.806Z,45.47
2019-04-06T02:58:27.333Z,46.60
2019-04-06T03:00:56.805Z,45.93
2019-04-06T03:03:26.235Z,47.27
2019-04-06T03:05:58.701Z,49.20
2019-04-06T03:08:28.562Z,49.93
2019-04-06T03:10:58.020Z,50.50
2019-04-06T03:13:27.416Z,50.17
2019-04-06T03:15:56.919Z,52.20
2019-04-06T03:18:26.297Z,50.87
2019-04-06T03:20:55.817Z,49.13
2019-04-06T03:23:25.745Z,49.20
2019-04-06T03:25:55.439Z,48.93
2019-04-06T03:28:24.925Z,47.13
2019-04-06T03:30:54.706Z,48.70
2019-04-06T03:33:24.502Z,47.47
2019-04-06T03:35:54.052Z,48.47
2019-04-06T03:38:23.843Z,44.77
2019-04-06T03:40:53.305Z,47.53
2019-04-06T03:43:22.683Z,46.63
2019-04-06T03:45:54.547Z,46.67
2019-04-06T03:48:23.955Z,47.63
2019-04-06T03:50:53.349Z,46.70
2019-04-06T03:53:22.745Z,48.27
2019-04-06T03:55:53.042Z,46.33
2019-04-06T03:58:22.494Z,44.93
2019-04-06T04:00:52.049Z,45.77
2019-04-06T04:03:21.452Z,45.73
2019-04-06T04:05:50.863Z,44.30
2019-04-06T04:08:20.789Z,44.63
2019-04-06T04:10:50.174Z,45.10
2019-04-06T04:13:19.568Z,46.23
2019-04-06T04:15:48.999Z,44.37
2019-04-06T04:18:18.368Z,44.90
2019-04-06T04:20:47.780Z,44.40
2019-04-06T04:23:17.156Z,41.70
2019-04-06T04:25:46.944Z,43.83
2019-04-06T04:28:16.455Z,44.73
2019-04-06T04:30:45.862Z,43.63
2019-04-06T04:33:16.253Z,46.90
2019-04-06T04:35:46.136Z,44.83
2019-04-06T04:38:15.661Z,46.27
2019-04-06T04:40:45.084Z,43.87
2019-04-06T04:43:14.577Z,46.10
2019-04-06T04:45:44.604Z,44.83
2019-04-06T04:48:14.578Z,44.87
2019-04-06T04:50:44.057Z,45.17
2019-04-06T04:53:13.463Z,48.87
2019-04-06T04:55:42.937Z,50.90
2019-04-06T04:58:12.526Z,54.13
2019-04-06T05:00:42.092Z,52.57
2019-04-06T05:03:11.522Z,54.07
2019-04-06T05:05:40.983Z,53.93
2019-04-06T05:08:10.419Z,53.77
2019-04-06T05:10:39.807Z,56.77
2019-04-06T05:13:09.167Z,55.73
2019-04-06T05:16:17.705Z,54.47
2019-04-06T05:18:47.109Z,56.73
2019-04-06T05:21:16.535Z,58.73
2019-04-06T05:23:45.919Z,57.73
2019-04-06T05:26:15.249Z,58.90
2019-04-06T05:28:45.018Z,57.90
2019-04-06T05:31:14.439Z,59.30
2019-04-06T05:33:43.867Z,59.33
2019-04-06T05:36:13.270Z,59.27
2019-04-06T05:38:42.702Z,58.17
2019-04-06T05:41:12.116Z,56.27
2019-04-06T05:43:41.574Z,57.47
2019-04-06T05:46:10.986Z,55.23
2019-04-06T05:48:40.789Z,58.77
2019-04-06T05:51:10.329Z,57.97
2019-04-06T05:53:39.928Z,57.47
2019-04-06T05:56:10.001Z,58.37
2019-04-06T05:58:40.653Z,56.40
2019-04-06T06:01:11.381Z,56.33
2019-04-06T06:03:41.327Z,58.13
2019-04-06T06:06:12.652Z,57.00
2019-04-06T06:08:42.393Z,57.43
2019-04-06T06:11:12.273Z,58.87
2019-04-06T06:13:42.162Z,57.07
2019-04-06T06:16:12.323Z,59.83
2019-04-06T06:18:42.515Z,55.63
2019-04-06T06:21:12.415Z,55.73
2019-04-06T06:23:42.364Z,61.30
2019-04-06T06:26:11.953Z,57.10
2019-04-06T06:28:42.053Z,57.40
2019-04-06T06:31:11.455Z,54.50
2019-04-06T06:33:41.011Z,51.40
2019-04-06T06:36:10.771Z,52.63
2019-04-06T06:38:43.799Z,49.03
2019-04-06T06:41:13.444Z,46.47
2019-04-06T06:43:45.125Z,49.90
2019-04-06T06:46:14.122Z,48.40
2019-04-06T06:48:44.009Z,46.67
2019-04-06T06:51:13.433Z,48.03
2019-04-06T06:53:43.009Z,45.27
2019-04-06T06:56:12.497Z,44.70
2019-04-06T06:58:41.971Z,44.60
2019-04-06T07:01:11.702Z,44.77
2019-04-06T07:03:41.351Z,45.23
2019-04-06T07:06:10.718Z,44.13
2019-04-06T07:08:40.458Z,45.73
2019-04-06T07:11:09.946Z,47.63
2019-04-06T07:13:39.359Z,47.57
2019-04-06T07:16:10.189Z,48.53
2019-04-06T07:18:40.028Z,50.77
2019-04-06T07:21:09.858Z,46.87
2019-04-06T07:23:39.787Z,47.57
2019-04-06T07:26:09.535Z,49.60
2019-04-06T07:28:39.522Z,53.07
2019-04-06T07:31:09.052Z,51.40
2019-04-06T07:33:39.559Z,54.10
2019-04-06T07:36:12.367Z,52.10
2019-04-06T07:38:42.208Z,50.30
2019-04-06T07:41:11.985Z,51.63
2019-04-06T07:43:42.004Z,52.20
2019-04-06T07:46:11.515Z,52.37
2019-04-06T07:48:41.065Z,50.07
2019-04-06T07:51:10.450Z,49.77
2019-04-06T07:53:40.004Z,48.67
2019-04-06T07:56:09.396Z,50.87
2019-04-06T07:58:47.925Z,49.43
2019-04-06T08:01:09.861Z,48.90
2019-04-06T08:03:40.273Z,51.57
2019-04-06T08:06:09.690Z,49.73
2019-04-06T08:08:39.099Z,48.23
2019-04-06T08:11:08.881Z,50.93
2019-04-06T08:13:38.308Z,50.80
2019-04-06T08:16:07.693Z,48.87
2019-04-06T08:18:37.519Z,48.63
2019-04-06T08:21:07.107Z,47.07
2019-04-06T08:23:36.649Z,48.03
2019-04-06T08:26:06.526Z,47.60
2019-04-06T08:28:36.326Z,47.73
2019-04-06T08:31:05.802Z,47.27
2019-04-06T08:33:35.545Z,47.80
2019-04-06T08:36:05.161Z,49.97
2019-04-06T08:38:34.764Z,49.00
2019-04-06T08:41:05.097Z,50.27
2019-04-06T08:43:34.822Z,51.03
2019-04-06T08:46:04.408Z,49.20
2019-04-06T08:48:34.098Z,50.07
2019-04-06T08:51:04.030Z,49.23
2019-04-06T08:53:34.296Z,47.97
2019-04-06T08:56:03.912Z,48.53
2019-04-06T08:58:33.528Z,47.50
2019-04-06T09:01:03.323Z,49.43
2019-04-06T09:03:32.975Z,46.73
2019-04-06T09:06:02.486Z,47.10
2019-04-06T09:08:32.111Z,46.63
2019-04-06T09:11:02.125Z,47.87
2019-04-06T09:13:31.590Z,47.83
2019-04-06T09:16:03.692Z,48.17
2019-04-06T09:18:32.258Z,45.70
2019-04-06T09:21:02.010Z,45.10
2019-04-06T09:23:31.878Z,47.57
2019-04-06T09:26:01.576Z,50.27
2019-04-06T09:28:31.341Z,45.60
2019-04-06T09:31:00.925Z,47.13
2019-04-06T09:33:30.791Z,46.03
2019-04-06T09:36:02.430Z,44.90
2019-04-06T09:38:32.014Z,44.70
2019-04-06T09:41:01.665Z,46.50
2019-04-06T09:43:31.297Z,46.53
2019-04-06T09:46:19.670Z,43.57
2019-04-06T09:49:07.407Z,45.63
2019-04-06T09:52:07.866Z,47.60
2019-04-06T09:54:50.108Z,46.60
2019-04-06T09:57:39.802Z,46.03
2019-04-06T10:00:28.873Z,46.37
2019-04-06T10:03:21.840Z,46.73
2019-04-06T10:06:16.814Z,45.53
2019-04-06T10:09:04.056Z,43.37
2019-04-06T10:11:52.446Z,45.60
2019-04-06T10:14:37.276Z,44.17
2019-04-06T10:17:38.224Z,44.77
2019-04-06T10:20:36.143Z,44.17
2019-04-06T10:23:23.586Z,45.50
2019-04-06T10:26:12.149Z,43.70
2019-04-06T10:28:59.360Z,44.40
2019-04-06T10:31:57.014Z,43.27
2019-04-06T10:34:46.534Z,44.80
2019-04-06T10:37:37.821Z,44.93
2019-04-06T10:40:32.234Z,43.03
2019-04-06T10:43:26.410Z,43.07
2019-04-06T10:46:17.598Z,44.97
2019-04-06T10:49:01.403Z,43.30
2019-04-06T10:51:52.954Z,42.17
2019-04-06T10:54:59.682Z,44.40
2019-04-06T10:57:54.376Z,43.53
2019-04-06T11:00:45.972Z,43.73
2019-04-06T11:03:34.440Z,43.23
2019-04-06T11:06:11.880Z,45.33
2019-04-06T11:09:03.433Z,44.20
2019-04-06T11:11:51.788Z,43.30
2019-04-06T11:14:52.474Z,44.07
2019-04-06T11:17:39.732Z,42.70
2019-04-06T11:20:34.698Z,44.90
2019-04-06T11:23:29.516Z,41.20
2019-04-06T11:26:26.713Z,41.30
2019-04-06T11:29:02.398Z,43.37
2019-04-06T11:31:50.798Z,41.47
2019-04-06T11:34:57.260Z,41.27
2019-04-06T11:37:44.447Z,42.00
2019-04-06T11:40:24.991Z,40.40
2019-04-06T11:43:13.416Z,40.60
2019-04-06T11:45:54.755Z,40.63
2019-04-06T11:48:42.114Z,42.20
2019-04-06T11:51:26.822Z,41.27
2019-04-06T11:54:13.775Z,42.00
2019-04-06T11:56:58.923Z,40.23
2019-04-06T11:59:55.209Z,41.27
2019-04-06T12:02:33.659Z,37.40
2019-04-06T12:05:19.543Z,38.77
2019-04-06T12:08:06.965Z,37.43
2019-04-06T12:10:54.237Z,38.60
2019-04-06T12:13:45.477Z,38.20
2019-04-06T12:16:45.818Z,36.97
2019-04-06T12:19:33.061Z,35.43
2019-04-06T12:22:30.433Z,34.37
2019-04-06T12:25:19.127Z,31.60
2019-04-06T12:28:07.597Z,32.10
2019-04-06T12:30:58.695Z,28.40
2019-04-06T12:33:47.073Z,28.80
2019-04-06T12:36:24.295Z,27.13
2019-04-06T12:39:11.203Z,29.80
2019-04-06T12:41:52.028Z,29.20
2019-04-06T12:44:38.953Z,30.30
2019-04-06T12:47:24.896Z,28.57
2019-04-06T12:50:11.984Z,28.00
2019-04-06T12:53:03.479Z,25.47
2019-04-06T12:55:51.996Z,25.37
2019-04-06T12:58:27.886Z,25.87
2019-04-06T13:01:15.411Z,25.70
2019-04-06T13:04:04.197Z,23.03
2019-04-06T13:06:52.554Z,21.70
2019-04-06T13:09:41.008Z,20.40
2019-04-06T13:12:24.022Z,20.40
2019-04-06T13:15:28.189Z,21.17
2019-04-06T13:18:04.808Z,21.83
2019-04-06T13:20:49.906Z,19.57
2019-04-06T13:23:43.205Z,17.63
2019-04-06T13:26:34.981Z,18.10
2019-04-06T13:29:35.649Z,18.27
2019-04-06T13:32:24.162Z,17.70
2019-04-06T13:35:18.526Z,18.40
2019-04-06T13:38:22.162Z,17.63
2019-04-06T13:41:16.153Z,16.70
2019-04-06T13:44:03.908Z,14.83
2019-04-06T13:46:56.870Z,14.23
2019-04-06T13:49:51.833Z,13.63
2019-04-06T13:52:52.606Z,13.53
2019-04-06T13:55:56.387Z,15.47
2019-04-06T13:58:54.067Z,13.70
2019-04-06T14:01:41.582Z,13.90
2019-04-06T14:04:28.807Z,12.50
2019-04-06T14:07:16.020Z,13.47
2019-04-06T14:10:16.602Z,17.13
2019-04-06T14:13:07.915Z,14.93
2019-04-06T14:15:56.213Z,14.53
2019-04-06T14:18:59.944Z,13.27
2019-04-06T14:21:48.612Z,12.90
2019-04-06T14:24:37.149Z,13.50
2019-04-06T14:27:25.570Z,13.90
2019-04-06T14:30:13.982Z,13.73
2019-04-06T14:33:05.755Z,13.80
2019-04-06T14:35:57.178Z,12.80
2019-04-06T14:38:48.675Z,13.73
2019-04-06T14:41:35.358Z,14.73
2019-04-06T14:44:23.763Z,13.27
2019-04-06T14:47:04.060Z,12.53
2019-04-06T14:49:51.460Z,16.23
2019-04-06T14:52:45.686Z,17.03
2019-04-06T14:55:40.690Z,17.20
2019-04-06T14:58:32.696Z,16.60
2019-04-06T15:01:12.027Z,16.80
2019-04-06T15:04:12.417Z,17.03
2019-04-06T15:07:11.279Z,15.70
2019-04-06T15:10:00.833Z,15.43
2019-04-06T15:12:44.637Z,13.67
2019-04-06T15:15:33.099Z,15.10
2019-04-06T15:18:25.066Z,14.10
2019-04-06T15:21:05.491Z,16.30
2019-04-06T15:23:53.925Z,16.17
2019-04-06T15:26:45.221Z,14.83
2019-04-06T15:29:28.887Z,15.17
2019-04-06T15:32:20.509Z,13.97
2019-04-06T15:35:08.877Z,13.50
2019-04-06T15:38:00.200Z,15.23
2019-04-06T15:40:41.605Z,15.00
2019-04-06T15:43:39.787Z,16.47
2019-04-06T15:46:18.782Z,16.73
2019-04-06T15:49:13.744Z,17.43
2019-04-06T15:52:11.930Z,38.37
2019-04-06T15:55:02.441Z,39.20
2019-04-06T15:57:39.937Z,24.20
2019-04-06T16:00:35.321Z,19.33
2019-04-06T16:03:17.605Z,19.87
2019-04-06T16:06:15.538Z,17.60
2019-04-06T16:09:13.426Z,19.93
2019-04-06T16:11:52.703Z,21.53
2019-04-06T16:14:42.725Z,24.87
2019-04-06T16:17:34.353Z,36.43
2019-04-06T16:20:38.402Z,25.60
2019-04-06T16:23:30.190Z,36.57
2019-04-06T16:26:19.111Z,28.43
2019-04-06T16:29:06.695Z,23.60
2019-04-06T16:32:14.025Z,23.27
2019-04-06T16:34:51.481Z,21.33
2019-04-06T16:37:44.157Z,20.83
2019-04-06T16:40:48.273Z,19.20
2019-04-06T16:43:36.081Z,20.60
2019-04-06T16:46:27.305Z,19.30
2019-04-06T16:49:21.971Z,17.53
2019-04-06T16:52:08.056Z,17.10
2019-04-06T16:54:47.753Z,17.57
2019-04-06T16:57:34.997Z,16.63
2019-04-06T17:00:33.518Z,16.87
2019-04-06T17:03:17.984Z,24.33
2019-04-06T17:05:59.654Z,17.67
2019-04-06T17:08:35.873Z,17.80
2019-04-06T17:11:21.885Z,18.23
2019-04-06T17:14:00.498Z,17.80
2019-04-06T17:16:50.075Z,17.73
2019-04-06T17:19:40.629Z,18.77
2019-04-06T17:22:28.124Z,16.77
2019-04-06T17:25:14.971Z,17.43
2019-04-06T17:27:53.519Z,20.40
2019-04-06T17:30:45.277Z,24.03
2019-04-06T17:33:43.072Z,18.13
2019-04-06T17:36:34.962Z,19.00
2019-04-06T17:39:25.558Z,18.30
2019-04-06T17:42:13.137Z,19.40
2019-04-06T17:45:00.333Z,19.03
2019-04-06T17:47:52.297Z,18.27
2019-04-06T17:50:49.806Z,19.63
2019-04-06T17:53:53.733Z,18.43
2019-04-06T17:56:58.187Z,19.10
2019-04-06T17:59:44.835Z,19.13
2019-04-06T18:02:47.886Z,18.10
2019-04-06T18:05:21.851Z,19.43
2019-04-06T18:08:22.227Z,19.03
2019-04-06T18:11:02.777Z,20.47
2019-04-06T18:13:57.524Z,25.77
2019-04-06T18:16:31.637Z,20.07
2019-04-06T18:19:02.237Z,19.03
2019-04-06T18:21:32.238Z,19.20
2019-04-06T18:24:02.041Z,20.23
2019-04-06T18:26:43.049Z,22.20
2019-04-06T18:29:12.606Z,20.73
2019-04-06T18:32:03.651Z,22.27
2019-04-06T18:34:33.166Z,19.80
2019-04-06T18:37:27.954Z,19.13
2019-04-06T18:39:58.330Z,18.37
2019-04-06T18:42:27.785Z,21.50
2019-04-06T18:44:57.311Z,25.10
2019-04-06T18:47:26.723Z,28.17
2019-04-06T18:49:56.189Z,26.57
2019-04-06T18:52:26.015Z,24.30
2019-04-06T18:54:56.139Z,25.93
2019-04-06T18:57:25.697Z,28.80
2019-04-06T18:59:55.295Z,33.17
2019-04-06T19:02:24.812Z,33.60
2019-04-06T19:04:55.230Z,34.33
2019-04-06T19:07:24.978Z,27.73
2019-04-06T19:09:54.648Z,21.73
2019-04-06T19:12:24.663Z,22.83
2019-04-06T19:14:54.189Z,23.80
2019-04-06T19:17:23.631Z,23.43
2019-04-06T19:19:53.834Z,25.00
2019-04-06T19:22:25.145Z,43.67
2019-04-06T19:24:55.407Z,44.00
2019-04-06T19:27:25.039Z,27.17
2019-04-06T19:29:54.468Z,23.10
2019-04-06T19:32:23.887Z,25.40
2019-04-06T19:34:53.211Z,25.87
2019-04-06T19:37:22.711Z,25.77
2019-04-06T19:39:52.408Z,26.27
2019-04-06T19:42:21.733Z,26.50
2019-04-06T19:44:51.183Z,27.03
2019-04-06T19:47:21.199Z,28.60
2019-04-06T19:49:50.575Z,29.73
2019-04-06T19:52:20.032Z,29.87
2019-04-06T19:54:49.495Z,30.33
2019-04-06T19:57:19.351Z,30.47
2019-04-06T19:59:49.279Z,32.07
2019-04-06T20:02:18.637Z,28.37
2019-04-06T20:04:48.607Z,29.17
2019-04-06T20:07:18.415Z,29.63
2019-04-06T20:09:47.909Z,31.93
2019-04-06T20:12:17.370Z,30.43
2019-04-06T20:14:47.170Z,30.97
2019-04-06T20:17:16.904Z,29.77
2019-04-06T20:19:46.310Z,30.20
2019-04-06T20:22:15.712Z,30.47
2019-04-06T20:24:45.163Z,27.93
2019-04-06T20:27:15.205Z,29.07
2019-04-06T20:29:44.722Z,28.70
2019-04-06T20:32:14.332Z,26.67
2019-04-06T20:34:43.906Z,27.27
2019-04-06T20:37:13.833Z,26.77
2019-04-06T20:39:43.593Z,26.60
2019-04-06T20:42:13.551Z,27.60
2019-04-06T20:44:42.921Z,31.70
2019-04-06T20:47:12.429Z,32.13
2019-04-06T20:50:01.717Z,28.00
2019-04-06T20:52:31.705Z,25.90
2019-04-06T20:55:01.553Z,24.60
2019-04-06T20:57:31.056Z,24.13
2019-04-06T21:00:00.800Z,24.43
2019-04-06T21:02:30.244Z,23.33
2019-04-06T21:05:00.494Z,23.03
2019-04-06T21:07:29.890Z,23.07
2019-04-06T21:09:59.406Z,23.03
2019-04-06T21:12:28.955Z,22.83
2019-04-06T21:14:58.873Z,21.87
2019-04-06T21:17:28.420Z,21.70
2019-04-06T21:19:58.304Z,22.47
2019-04-06T21:22:27.903Z,20.20
2019-04-06T21:24:57.374Z,21.90
2019-04-06T21:27:27.103Z,21.90
2019-04-06T21:29:57.004Z,21.43
2019-04-06T21:32:27.030Z,21.10
2019-04-06T21:34:57.023Z,20.90
2019-04-06T21:37:26.761Z,20.80
2019-04-06T21:39:56.194Z,21.30
2019-04-06T21:42:25.644Z,22.07
2019-04-06T21:44:54.964Z,20.70
2019-04-06T21:47:24.362Z,21.83
2019-04-06T21:49:54.311Z,22.07
2019-04-06T21:52:24.075Z,22.53
2019-04-06T21:54:54.170Z,23.17
2019-04-06T21:57:24.498Z,22.27
2019-04-06T21:59:55.092Z,23.47
2019-04-06T22:02:24.623Z,23.50
2019-04-06T22:04:54.478Z,23.63
2019-04-06T22:07:24.277Z,23.70
2019-04-06T22:09:53.779Z,23.73
2019-04-06T22:12:23.884Z,23.07
2019-04-06T22:14:53.350Z,24.23
2019-04-06T22:17:23.258Z,23.53
2019-04-06T22:19:52.693Z,26.60
2019-04-06T22:22:22.294Z,25.40
2019-04-06T22:24:52.045Z,25.63
2019-04-06T22:27:22.345Z,26.90
2019-04-06T22:29:52.241Z,27.97
2019-04-06T22:32:21.814Z,28.70
2019-04-06T22:34:52.065Z,29.20
2019-04-06T22:37:21.641Z,28.27
2019-04-06T22:39:51.248Z,29.57
2019-04-06T22:42:20.640Z,29.73
2019-04-06T22:44:49.998Z,29.87
2019-04-06T22:47:19.798Z,31.27
2019-04-06T22:49:49.868Z,32.00
2019-04-06T22:52:19.554Z,31.33
2019-04-06T22:54:49.119Z,31.30
2019-04-06T22:57:18.693Z,30.23
2019-04-06T22:59:48.436Z,31.50
2019-04-06T23:02:18.246Z,31.47
2019-04-06T23:05:06.613Z,30.13
2019-04-06T23:07:36.360Z,30.70
2019-04-06T23:10:06.010Z,30.20
2019-04-06T23:12:35.448Z,30.37
2019-04-06T23:15:06.291Z,30.80
2019-04-06T23:17:36.246Z,30.07
2019-04-06T23:20:06.491Z,32.20
2019-04-06T23:22:35.807Z,30.53
2019-04-06T23:25:05.911Z,30.87
2019-04-06T23:27:35.407Z,30.87
2019-04-06T23:30:05.372Z,30.40
2019-04-06T23:32:34.760Z,30.10
2019-04-06T23:35:04.740Z,30.77
2019-04-06T23:37:34.367Z,29.90
2019-04-06T23:40:04.263Z,29.67
2019-04-06T23:42:34.080Z,28.63
2019-04-06T23:45:03.951Z,28.93
2019-04-06T23:47:34.053Z,29.67
2019-04-06T23:50:03.767Z,28.73
2019-04-06T23:52:33.299Z,29.00
2019-04-06T23:55:02.854Z,28.50
2019-04-06T23:57:32.308Z,29.13
